sensor_id;sensor_type;location;lat;lon;timestamp;P1;durP1;ratioP1;P2;durP2;ratioP2
10031;SDS011;5056;44.272;19.892;2023-03-04T00:01:43;51.70;;;34.77;;
10031;SDS011;5056;44.272;19.892;2023-03-04T00:04:11;46.93;;;33.70;;
10031;SDS011;5056;44.272;19.892;2023-03-04T00:06:38;47.00;;;32.07;;
10031;SDS011;5056;44.272;19.892;2023-03-04T00:09:05;47.43;;;32.67;;
10031;SDS011;5056;44.272;19.892;2023-03-04T00:11:35;43.97;;;31.03;;
10031;SDS011;5056;44.272;19.892;2023-03-04T00:14:01;44.87;;;29.97;;
10031;SDS011;5056;44.272;19.892;2023-03-04T00:16:28;42.83;;;30.17;;
10031;SDS011;5056;44.272;19.892;2023-03-04T00:18:56;46.23;;;31.63;;
10031;SDS011;5056;44.272;19.892;2023-03-04T00:21:23;43.90;;;30.57;;
10031;SDS011;5056;44.272;19.892;2023-03-04T00:23:50;53.77;;;35.67;;
10031;SDS011;5056;44.272;19.892;2023-03-04T00:26:21;73.97;;;49.57;;
10031;SDS011;5056;44.272;19.892;2023-03-04T00:28:49;61.00;;;44.00;;
10031;SDS011;5056;44.272;19.892;2023-03-04T00:31:15;61.00;;;39.70;;
10031;SDS011;5056;44.272;19.892;2023-03-04T00:33:43;53.23;;;36.63;;
10031;SDS011;5056;44.272;19.892;2023-03-04T00:36:09;57.17;;;35.63;;
10031;SDS011;5056;44.272;19.892;2023-03-04T00:38:36;51.20;;;33.80;;
10031;SDS011;5056;44.272;19.892;2023-03-04T00:41:03;51.77;;;35.13;;
10031;SDS011;5056;44.272;19.892;2023-03-04T00:43:30;53.63;;;34.93;;
10031;SDS011;5056;44.272;19.892;2023-03-04T00:45:59;53.90;;;34.20;;
10031;SDS011;5056;44.272;19.892;2023-03-04T00:48:25;52.27;;;34.43;;
10031;SDS011;5056;44.272;19.892;2023-03-04T00:50:52;46.40;;;32.43;;
10031;SDS011;5056;44.272;19.892;2023-03-04T00:53:19;50.30;;;33.37;;
10031;SDS011;5056;44.272;19.892;2023-03-04T00:55:48;50.03;;;31.40;;
10031;SDS011;5056;44.272;19.892;2023-03-04T00:58:14;48.57;;;32.70;;
10031;SDS011;5056;44.272;19.892;2023-03-04T01:00:41;52.43;;;33.07;;
10031;SDS011;5056;44.272;19.892;2023-03-04T01:03:10;52.00;;;35.77;;
10031;SDS011;5056;44.272;19.892;2023-03-04T01:05:37;54.03;;;36.20;;
10031;SDS011;5056;44.272;19.892;2023-03-04T01:08:04;51.63;;;32.80;;
10031;SDS011;5056;44.272;19.892;2023-03-04T01:10:31;51.57;;;34.97;;
10031;SDS011;5056;44.272;19.892;2023-03-04T01:12:58;46.20;;;29.53;;
10031;SDS011;5056;44.272;19.892;2023-03-04T01:15:25;40.40;;;27.07;;
10031;SDS011;5056;44.272;19.892;2023-03-04T01:17:51;41.43;;;27.77;;
10031;SDS011;5056;44.272;19.892;2023-03-04T01:20:20;39.97;;;28.60;;
10031;SDS011;5056;44.272;19.892;2023-03-04T01:22:47;36.87;;;25.87;;
10031;SDS011;5056;44.272;19.892;2023-03-04T01:25:15;35.67;;;25.73;;
10031;SDS011;5056;44.272;19.892;2023-03-04T01:27:50;35.67;;;26.37;;
10031;SDS011;5056;44.272;19.892;2023-03-04T01:30:17;32.47;;;24.63;;
10031;SDS011;5056;44.272;19.892;2023-03-04T01:32:44;32.17;;;24.63;;
10031;SDS011;5056;44.272;19.892;2023-03-04T01:35:11;35.33;;;24.17;;
10031;SDS011;5056;44.272;19.892;2023-03-04T01:37:40;33.60;;;25.30;;
10031;SDS011;5056;44.272;19.892;2023-03-04T01:40:07;34.53;;;25.27;;
10031;SDS011;5056;44.272;19.892;2023-03-04T01:42:35;35.83;;;26.67;;
10031;SDS011;5056;44.272;19.892;2023-03-04T01:45:02;37.00;;;28.50;;
10031;SDS011;5056;44.272;19.892;2023-03-04T01:47:31;40.63;;;29.63;;
10031;SDS011;5056;44.272;19.892;2023-03-04T01:50:00;40.87;;;29.73;;
10031;SDS011;5056;44.272;19.892;2023-03-04T01:52:30;36.63;;;28.00;;
10031;SDS011;5056;44.272;19.892;2023-03-04T01:54:59;39.33;;;28.50;;
10031;SDS011;5056;44.272;19.892;2023-03-04T01:57:25;38.73;;;28.33;;
10031;SDS011;5056;44.272;19.892;2023-03-04T02:02:52;43.60;;;31.70;;
10031;SDS011;5056;44.272;19.892;2023-03-04T02:05:20;41.40;;;29.17;;
10031;SDS011;5056;44.272;19.892;2023-03-04T02:07:49;43.50;;;29.67;;
10031;SDS011;5056;44.272;19.892;2023-03-04T02:10:18;42.97;;;29.90;;
10031;SDS011;5056;44.272;19.892;2023-03-04T02:12:45;41.53;;;27.87;;
10031;SDS011;5056;44.272;19.892;2023-03-04T02:15:13;41.30;;;27.80;;
10031;SDS011;5056;44.272;19.892;2023-03-04T02:17:40;37.23;;;27.00;;
10031;SDS011;5056;44.272;19.892;2023-03-04T02:20:11;38.60;;;28.07;;
10031;SDS011;5056;44.272;19.892;2023-03-04T02:22:43;37.07;;;27.07;;
10031;SDS011;5056;44.272;19.892;2023-03-04T02:25:14;37.83;;;27.07;;
10031;SDS011;5056;44.272;19.892;2023-03-04T02:27:48;40.60;;;26.77;;
10031;SDS011;5056;44.272;19.892;2023-03-04T02:30:15;36.33;;;26.33;;
10031;SDS011;5056;44.272;19.892;2023-03-04T02:32:42;34.53;;;26.37;;
10031;SDS011;5056;44.272;19.892;2023-03-04T02:35:12;32.13;;;24.33;;
10031;SDS011;5056;44.272;19.892;2023-03-04T02:37:40;37.67;;;26.77;;
10031;SDS011;5056;44.272;19.892;2023-03-04T02:40:09;37.33;;;27.77;;
10031;SDS011;5056;44.272;19.892;2023-03-04T02:42:42;37.67;;;27.93;;
10031;SDS011;5056;44.272;19.892;2023-03-04T02:48:11;36.03;;;26.60;;
10031;SDS011;5056;44.272;19.892;2023-03-04T02:50:39;35.30;;;26.50;;
10031;SDS011;5056;44.272;19.892;2023-03-04T02:53:08;39.83;;;26.60;;
10031;SDS011;5056;44.272;19.892;2023-03-04T02:55:35;37.30;;;27.47;;
10031;SDS011;5056;44.272;19.892;2023-03-04T02:58:02;42.33;;;28.13;;
10031;SDS011;5056;44.272;19.892;2023-03-04T03:00:28;43.03;;;31.00;;
10031;SDS011;5056;44.272;19.892;2023-03-04T03:03:02;41.50;;;29.73;;
10031;SDS011;5056;44.272;19.892;2023-03-04T03:05:32;42.90;;;31.10;;
10031;SDS011;5056;44.272;19.892;2023-03-04T03:07:59;41.40;;;29.90;;
10031;SDS011;5056;44.272;19.892;2023-03-04T03:10:26;34.40;;;25.90;;
10031;SDS011;5056;44.272;19.892;2023-03-04T03:12:53;32.83;;;24.00;;
10031;SDS011;5056;44.272;19.892;2023-03-04T03:15:21;29.37;;;22.57;;
10031;SDS011;5056;44.272;19.892;2023-03-04T03:17:48;29.20;;;21.80;;
10031;SDS011;5056;44.272;19.892;2023-03-04T03:20:16;31.33;;;24.77;;
10031;SDS011;5056;44.272;19.892;2023-03-04T03:22:49;34.60;;;24.67;;
10031;SDS011;5056;44.272;19.892;2023-03-04T03:25:16;35.47;;;24.20;;
10031;SDS011;5056;44.272;19.892;2023-03-04T03:27:45;31.70;;;24.60;;
10031;SDS011;5056;44.272;19.892;2023-03-04T03:30:13;30.53;;;23.37;;
10031;SDS011;5056;44.272;19.892;2023-03-04T03:32:42;32.33;;;23.70;;
10031;SDS011;5056;44.272;19.892;2023-03-04T03:35:10;39.13;;;26.97;;
10031;SDS011;5056;44.272;19.892;2023-03-04T03:37:38;36.53;;;26.67;;
10031;SDS011;5056;44.272;19.892;2023-03-04T03:40:07;34.67;;;25.27;;
10031;SDS011;5056;44.272;19.892;2023-03-04T03:42:35;40.43;;;27.00;;
10031;SDS011;5056;44.272;19.892;2023-03-04T03:45:02;39.17;;;27.97;;
10031;SDS011;5056;44.272;19.892;2023-03-04T03:47:29;36.83;;;26.93;;
10031;SDS011;5056;44.272;19.892;2023-03-04T03:49:59;42.33;;;27.57;;
10031;SDS011;5056;44.272;19.892;2023-03-04T03:52:26;45.80;;;29.60;;
10031;SDS011;5056;44.272;19.892;2023-03-04T03:54:53;38.77;;;26.33;;
10031;SDS011;5056;44.272;19.892;2023-03-04T03:57:22;39.67;;;26.43;;
10031;SDS011;5056;44.272;19.892;2023-03-04T03:59:48;36.77;;;26.17;;
10031;SDS011;5056;44.272;19.892;2023-03-04T04:02:15;43.40;;;28.43;;
10031;SDS011;5056;44.272;19.892;2023-03-04T04:04:43;38.10;;;26.77;;
10031;SDS011;5056;44.272;19.892;2023-03-04T04:07:11;39.77;;;29.10;;
10031;SDS011;5056;44.272;19.892;2023-03-04T04:09:38;49.80;;;31.10;;
10031;SDS011;5056;44.272;19.892;2023-03-04T04:12:05;43.90;;;27.33;;
10031;SDS011;5056;44.272;19.892;2023-03-04T04:14:36;40.27;;;28.30;;
10031;SDS011;5056;44.272;19.892;2023-03-04T04:17:03;42.23;;;28.27;;
10031;SDS011;5056;44.272;19.892;2023-03-04T04:19:29;44.20;;;29.87;;
10031;SDS011;5056;44.272;19.892;2023-03-04T04:21:56;42.53;;;28.67;;
10031;SDS011;5056;44.272;19.892;2023-03-04T04:24:23;41.27;;;28.97;;
10031;SDS011;5056;44.272;19.892;2023-03-04T04:26:52;39.93;;;27.93;;
10031;SDS011;5056;44.272;19.892;2023-03-04T04:29:18;39.73;;;26.60;;
10031;SDS011;5056;44.272;19.892;2023-03-04T04:31:53;37.50;;;26.93;;
10031;SDS011;5056;44.272;19.892;2023-03-04T04:34:19;37.17;;;26.17;;
10031;SDS011;5056;44.272;19.892;2023-03-04T04:36:47;40.97;;;27.60;;
10031;SDS011;5056;44.272;19.892;2023-03-04T04:39:16;43.73;;;29.83;;
10031;SDS011;5056;44.272;19.892;2023-03-04T04:41:44;41.80;;;29.80;;
10031;SDS011;5056;44.272;19.892;2023-03-04T04:44:11;40.10;;;27.80;;
10031;SDS011;5056;44.272;19.892;2023-03-04T04:46:39;38.40;;;25.53;;
10031;SDS011;5056;44.272;19.892;2023-03-04T04:49:08;36.67;;;26.17;;
10031;SDS011;5056;44.272;19.892;2023-03-04T04:51:35;35.53;;;24.23;;
10031;SDS011;5056;44.272;19.892;2023-03-04T04:54:09;36.50;;;26.23;;
10031;SDS011;5056;44.272;19.892;2023-03-04T04:56:35;34.90;;;23.60;;
10031;SDS011;5056;44.272;19.892;2023-03-04T04:59:04;35.00;;;24.80;;
10031;SDS011;5056;44.272;19.892;2023-03-04T05:01:36;31.23;;;23.13;;
10031;SDS011;5056;44.272;19.892;2023-03-04T05:04:03;34.97;;;24.80;;
10031;SDS011;5056;44.272;19.892;2023-03-04T05:06:34;39.40;;;28.07;;
10031;SDS011;5056;44.272;19.892;2023-03-04T05:09:01;35.03;;;25.63;;
10031;SDS011;5056;44.272;19.892;2023-03-04T05:11:41;30.33;;;22.83;;
10031;SDS011;5056;44.272;19.892;2023-03-04T05:14:09;35.03;;;24.60;;
10031;SDS011;5056;44.272;19.892;2023-03-04T05:16:36;35.03;;;24.80;;
10031;SDS011;5056;44.272;19.892;2023-03-04T05:19:03;30.53;;;22.13;;
10031;SDS011;5056;44.272;19.892;2023-03-04T05:21:30;32.10;;;22.20;;
10031;SDS011;5056;44.272;19.892;2023-03-04T05:23:58;34.50;;;23.70;;
10031;SDS011;5056;44.272;19.892;2023-03-04T05:26:24;28.53;;;21.27;;
10031;SDS011;5056;44.272;19.892;2023-03-04T05:28:52;31.20;;;22.30;;
10031;SDS011;5056;44.272;19.892;2023-03-04T05:31:19;31.13;;;21.73;;
10031;SDS011;5056;44.272;19.892;2023-03-04T05:33:46;30.80;;;22.20;;
10031;SDS011;5056;44.272;19.892;2023-03-04T05:36:12;32.60;;;22.77;;
10031;SDS011;5056;44.272;19.892;2023-03-04T05:38:39;29.37;;;22.37;;
10031;SDS011;5056;44.272;19.892;2023-03-04T05:41:10;33.07;;;22.30;;
10031;SDS011;5056;44.272;19.892;2023-03-04T05:43:36;35.70;;;25.00;;
10031;SDS011;5056;44.272;19.892;2023-03-04T05:46:07;47.83;;;31.47;;
10031;SDS011;5056;44.272;19.892;2023-03-04T05:48:34;39.73;;;29.03;;
10031;SDS011;5056;44.272;19.892;2023-03-04T05:51:01;44.93;;;29.83;;
10031;SDS011;5056;44.272;19.892;2023-03-04T05:53:28;49.90;;;32.83;;
10031;SDS011;5056;44.272;19.892;2023-03-04T05:55:55;45.17;;;30.80;;
10031;SDS011;5056;44.272;19.892;2023-03-04T05:58:24;40.77;;;28.13;;
10031;SDS011;5056;44.272;19.892;2023-03-04T06:00:51;43.20;;;28.00;;
10031;SDS011;5056;44.272;19.892;2023-03-04T06:03:19;35.70;;;25.33;;
10031;SDS011;5056;44.272;19.892;2023-03-04T06:05:48;32.80;;;24.60;;
10031;SDS011;5056;44.272;19.892;2023-03-04T06:08:15;34.13;;;25.93;;
10031;SDS011;5056;44.272;19.892;2023-03-04T06:13:56;39.00;;;27.77;;
10031;SDS011;5056;44.272;19.892;2023-03-04T06:16:23;39.97;;;28.67;;
10031;SDS011;5056;44.272;19.892;2023-03-04T06:18:50;37.07;;;27.83;;
10031;SDS011;5056;44.272;19.892;2023-03-04T06:24:21;37.47;;;26.13;;
10031;SDS011;5056;44.272;19.892;2023-03-04T06:26:48;38.63;;;28.03;;
10031;SDS011;5056;44.272;19.892;2023-03-04T06:29:17;32.70;;;24.93;;
10031;SDS011;5056;44.272;19.892;2023-03-04T06:31:43;33.00;;;24.97;;
10031;SDS011;5056;44.272;19.892;2023-03-04T06:37:27;35.83;;;24.93;;
10031;SDS011;5056;44.272;19.892;2023-03-04T06:39:54;38.70;;;26.30;;
10031;SDS011;5056;44.272;19.892;2023-03-04T06:42:21;40.30;;;27.70;;
10031;SDS011;5056;44.272;19.892;2023-03-04T06:44:49;35.70;;;26.77;;
10031;SDS011;5056;44.272;19.892;2023-03-04T06:47:16;36.53;;;27.90;;
10031;SDS011;5056;44.272;19.892;2023-03-04T06:49:44;38.90;;;29.03;;
10031;SDS011;5056;44.272;19.892;2023-03-04T06:52:11;37.40;;;28.03;;
10031;SDS011;5056;44.272;19.892;2023-03-04T06:54:38;36.33;;;27.93;;
10031;SDS011;5056;44.272;19.892;2023-03-04T06:57:04;42.53;;;30.97;;
10031;SDS011;5056;44.272;19.892;2023-03-04T06:59:32;45.20;;;32.43;;
10031;SDS011;5056;44.272;19.892;2023-03-04T07:02:00;52.50;;;35.17;;
10031;SDS011;5056;44.272;19.892;2023-03-04T07:04:27;46.07;;;32.83;;
10031;SDS011;5056;44.272;19.892;2023-03-04T07:06:54;48.87;;;34.43;;
10031;SDS011;5056;44.272;19.892;2023-03-04T07:09:21;49.77;;;36.03;;
10031;SDS011;5056;44.272;19.892;2023-03-04T07:11:48;57.20;;;38.43;;
10031;SDS011;5056;44.272;19.892;2023-03-04T07:14:15;48.63;;;35.23;;
10031;SDS011;5056;44.272;19.892;2023-03-04T07:16:42;48.37;;;33.20;;
10031;SDS011;5056;44.272;19.892;2023-03-04T07:19:10;44.10;;;31.63;;
10031;SDS011;5056;44.272;19.892;2023-03-04T07:21:37;40.43;;;30.00;;
10031;SDS011;5056;44.272;19.892;2023-03-04T07:24:04;40.60;;;30.60;;
10031;SDS011;5056;44.272;19.892;2023-03-04T07:26:31;40.87;;;28.60;;
10031;SDS011;5056;44.272;19.892;2023-03-04T07:28:58;37.63;;;27.23;;
10031;SDS011;5056;44.272;19.892;2023-03-04T07:31:26;39.17;;;30.23;;
10031;SDS011;5056;44.272;19.892;2023-03-04T07:33:55;46.10;;;33.67;;
10031;SDS011;5056;44.272;19.892;2023-03-04T07:36:23;42.80;;;32.77;;
10031;SDS011;5056;44.272;19.892;2023-03-04T07:38:50;43.77;;;31.47;;
10031;SDS011;5056;44.272;19.892;2023-03-04T07:41:19;45.80;;;32.07;;
10031;SDS011;5056;44.272;19.892;2023-03-04T07:43:47;43.80;;;31.70;;
10031;SDS011;5056;44.272;19.892;2023-03-04T07:46:14;48.10;;;31.73;;
10031;SDS011;5056;44.272;19.892;2023-03-04T07:48:41;47.13;;;32.23;;
10031;SDS011;5056;44.272;19.892;2023-03-04T07:51:09;45.20;;;31.77;;
10031;SDS011;5056;44.272;19.892;2023-03-04T07:53:38;42.93;;;32.50;;
10031;SDS011;5056;44.272;19.892;2023-03-04T07:56:07;42.97;;;30.67;;
10031;SDS011;5056;44.272;19.892;2023-03-04T07:58:35;38.87;;;28.87;;
10031;SDS011;5056;44.272;19.892;2023-03-04T08:01:07;39.67;;;27.90;;
10031;SDS011;5056;44.272;19.892;2023-03-04T08:03:34;39.73;;;29.87;;
10031;SDS011;5056;44.272;19.892;2023-03-04T08:06:02;68.77;;;54.63;;
10031;SDS011;5056;44.272;19.892;2023-03-04T08:08:30;45.40;;;33.43;;
10031;SDS011;5056;44.272;19.892;2023-03-04T08:10:58;37.20;;;28.50;;
10031;SDS011;5056;44.272;19.892;2023-03-04T08:13:25;40.90;;;30.30;;
10031;SDS011;5056;44.272;19.892;2023-03-04T08:15:54;41.50;;;29.33;;
10031;SDS011;5056;44.272;19.892;2023-03-04T08:18:21;42.87;;;31.27;;
10031;SDS011;5056;44.272;19.892;2023-03-04T08:20:47;42.87;;;30.70;;
10031;SDS011;5056;44.272;19.892;2023-03-04T08:23:14;40.73;;;30.37;;
10031;SDS011;5056;44.272;19.892;2023-03-04T08:25:41;39.33;;;29.73;;
10031;SDS011;5056;44.272;19.892;2023-03-04T08:28:09;39.57;;;29.50;;
10031;SDS011;5056;44.272;19.892;2023-03-04T08:30:37;41.47;;;29.63;;
10031;SDS011;5056;44.272;19.892;2023-03-04T08:36:13;67.03;;;48.90;;
10031;SDS011;5056;44.272;19.892;2023-03-04T08:38:40;63.13;;;47.53;;
10031;SDS011;5056;44.272;19.892;2023-03-04T08:41:06;64.20;;;47.23;;
10031;SDS011;5056;44.272;19.892;2023-03-04T08:46:56;44.83;;;35.97;;
10031;SDS011;5056;44.272;19.892;2023-03-04T08:49:23;40.57;;;31.47;;
10031;SDS011;5056;44.272;19.892;2023-03-04T08:51:50;33.97;;;27.90;;
10031;SDS011;5056;44.272;19.892;2023-03-04T08:54:23;32.17;;;25.47;;
10031;SDS011;5056;44.272;19.892;2023-03-04T08:56:50;28.33;;;23.10;;
10031;SDS011;5056;44.272;19.892;2023-03-04T08:59:17;33.27;;;26.10;;
10031;SDS011;5056;44.272;19.892;2023-03-04T09:01:45;31.80;;;25.87;;
10031;SDS011;5056;44.272;19.892;2023-03-04T09:06:51;38.80;;;29.10;;
10031;SDS011;5056;44.272;19.892;2023-03-04T09:09:18;36.70;;;28.03;;
10031;SDS011;5056;44.272;19.892;2023-03-04T09:11:50;44.80;;;33.40;;
10031;SDS011;5056;44.272;19.892;2023-03-04T09:14:17;34.93;;;27.47;;
10031;SDS011;5056;44.272;19.892;2023-03-04T09:16:44;30.50;;;24.03;;
10031;SDS011;5056;44.272;19.892;2023-03-04T09:19:10;29.00;;;23.40;;
10031;SDS011;5056;44.272;19.892;2023-03-04T09:21:39;28.87;;;22.90;;
10031;SDS011;5056;44.272;19.892;2023-03-04T09:24:07;35.00;;;27.23;;
10031;SDS011;5056;44.272;19.892;2023-03-04T09:26:35;33.87;;;28.77;;
10031;SDS011;5056;44.272;19.892;2023-03-04T09:29:04;36.70;;;29.27;;
10031;SDS011;5056;44.272;19.892;2023-03-04T09:31:30;31.17;;;24.73;;
10031;SDS011;5056;44.272;19.892;2023-03-04T09:33:58;35.00;;;25.50;;
10031;SDS011;5056;44.272;19.892;2023-03-04T09:36:25;29.50;;;23.57;;
10031;SDS011;5056;44.272;19.892;2023-03-04T09:38:55;27.53;;;21.33;;
10031;SDS011;5056;44.272;19.892;2023-03-04T09:41:25;25.37;;;21.20;;
10031;SDS011;5056;44.272;19.892;2023-03-04T09:43:57;25.47;;;19.67;;
10031;SDS011;5056;44.272;19.892;2023-03-04T09:46:28;23.07;;;19.17;;
10031;SDS011;5056;44.272;19.892;2023-03-04T09:48:59;25.87;;;19.40;;
10031;SDS011;5056;44.272;19.892;2023-03-04T09:51:33;22.47;;;18.37;;
10031;SDS011;5056;44.272;19.892;2023-03-04T09:54:13;25.50;;;19.40;;
10031;SDS011;5056;44.272;19.892;2023-03-04T09:56:45;24.13;;;18.90;;
10031;SDS011;5056;44.272;19.892;2023-03-04T09:59:14;23.80;;;19.70;;
10031;SDS011;5056;44.272;19.892;2023-03-04T10:01:47;23.60;;;20.23;;
10031;SDS011;5056;44.272;19.892;2023-03-04T10:04:16;25.63;;;20.70;;
10031;SDS011;5056;44.272;19.892;2023-03-04T10:06:46;22.93;;;20.43;;
10031;SDS011;5056;44.272;19.892;2023-03-04T10:09:20;21.63;;;19.17;;
10031;SDS011;5056;44.272;19.892;2023-03-04T10:11:49;21.40;;;18.83;;
10031;SDS011;5056;44.272;19.892;2023-03-04T10:14:32;24.70;;;19.43;;
10031;SDS011;5056;44.272;19.892;2023-03-04T10:17:02;23.47;;;18.73;;
10031;SDS011;5056;44.272;19.892;2023-03-04T10:19:43;26.30;;;20.37;;
10031;SDS011;5056;44.272;19.892;2023-03-04T10:22:22;24.17;;;19.57;;
10031;SDS011;5056;44.272;19.892;2023-03-04T10:24:55;21.57;;;18.10;;
10031;SDS011;5056;44.272;19.892;2023-03-04T10:27:22;25.10;;;19.13;;
10031;SDS011;5056;44.272;19.892;2023-03-04T10:29:49;27.00;;;21.27;;
10031;SDS011;5056;44.272;19.892;2023-03-04T10:32:18;24.03;;;20.77;;
10031;SDS011;5056;44.272;19.892;2023-03-04T10:34:45;23.20;;;18.50;;
10031;SDS011;5056;44.272;19.892;2023-03-04T10:37:12;24.50;;;20.27;;
10031;SDS011;5056;44.272;19.892;2023-03-04T10:39:40;48.03;;;35.83;;
10031;SDS011;5056;44.272;19.892;2023-03-04T10:42:23;43.23;;;30.80;;
10031;SDS011;5056;44.272;19.892;2023-03-04T10:44:55;32.67;;;26.43;;
10031;SDS011;5056;44.272;19.892;2023-03-04T10:47:23;28.50;;;21.30;;
10031;SDS011;5056;44.272;19.892;2023-03-04T10:49:51;24.03;;;19.63;;
10031;SDS011;5056;44.272;19.892;2023-03-04T10:52:26;26.43;;;21.17;;
10031;SDS011;5056;44.272;19.892;2023-03-04T10:55:05;20.10;;;17.63;;
10031;SDS011;5056;44.272;19.892;2023-03-04T10:57:42;23.33;;;17.67;;
10031;SDS011;5056;44.272;19.892;2023-03-04T11:00:21;20.93;;;17.83;;
10031;SDS011;5056;44.272;19.892;2023-03-04T11:02:50;24.73;;;18.43;;
10031;SDS011;5056;44.272;19.892;2023-03-04T11:05:18;25.77;;;21.37;;
10031;SDS011;5056;44.272;19.892;2023-03-04T11:07:48;25.13;;;21.73;;
10031;SDS011;5056;44.272;19.892;2023-03-04T11:10:16;25.10;;;21.77;;
10031;SDS011;5056;44.272;19.892;2023-03-04T11:12:48;30.70;;;24.07;;
10031;SDS011;5056;44.272;19.892;2023-03-04T11:15:18;33.97;;;25.40;;
10031;SDS011;5056;44.272;19.892;2023-03-04T11:17:51;31.57;;;25.90;;
10031;SDS011;5056;44.272;19.892;2023-03-04T11:20:30;31.43;;;24.33;;
10031;SDS011;5056;44.272;19.892;2023-03-04T11:22:59;33.40;;;24.57;;
10031;SDS011;5056;44.272;19.892;2023-03-04T11:25:28;31.13;;;25.10;;
10031;SDS011;5056;44.272;19.892;2023-03-04T11:27:58;35.80;;;28.40;;
10031;SDS011;5056;44.272;19.892;2023-03-04T11:30:35;35.70;;;27.53;;
10031;SDS011;5056;44.272;19.892;2023-03-04T11:35:53;29.73;;;23.80;;
10031;SDS011;5056;44.272;19.892;2023-03-04T11:38:24;36.70;;;28.23;;
10031;SDS011;5056;44.272;19.892;2023-03-04T11:40:53;30.53;;;23.27;;
10031;SDS011;5056;44.272;19.892;2023-03-04T11:43:27;31.83;;;23.70;;
10031;SDS011;5056;44.272;19.892;2023-03-04T11:46:12;30.53;;;24.23;;
10031;SDS011;5056;44.272;19.892;2023-03-04T11:49:05;31.00;;;22.87;;
10031;SDS011;5056;44.272;19.892;2023-03-04T11:51:42;31.00;;;22.80;;
10031;SDS011;5056;44.272;19.892;2023-03-04T11:54:16;31.53;;;22.70;;
10031;SDS011;5056;44.272;19.892;2023-03-04T11:56:49;28.43;;;23.50;;
10031;SDS011;5056;44.272;19.892;2023-03-04T12:02:32;30.23;;;23.13;;
10031;SDS011;5056;44.272;19.892;2023-03-04T12:05:11;31.73;;;24.03;;
10031;SDS011;5056;44.272;19.892;2023-03-04T12:07:57;29.90;;;21.97;;
10031;SDS011;5056;44.272;19.892;2023-03-04T12:10:48;30.37;;;23.03;;
10031;SDS011;5056;44.272;19.892;2023-03-04T12:16:27;30.43;;;22.53;;
10031;SDS011;5056;44.272;19.892;2023-03-04T12:21:55;35.70;;;25.73;;
10031;SDS011;5056;44.272;19.892;2023-03-04T12:24:35;24.50;;;20.40;;
10031;SDS011;5056;44.272;19.892;2023-03-04T12:27:16;28.67;;;22.10;;
10031;SDS011;5056;44.272;19.892;2023-03-04T12:29:48;30.37;;;21.77;;
10031;SDS011;5056;44.272;19.892;2023-03-04T12:32:21;25.23;;;20.00;;
10031;SDS011;5056;44.272;19.892;2023-03-04T12:34:55;28.07;;;21.57;;
10031;SDS011;5056;44.272;19.892;2023-03-04T12:40:22;26.07;;;20.80;;
10031;SDS011;5056;44.272;19.892;2023-03-04T12:43:02;28.70;;;21.73;;
10031;SDS011;5056;44.272;19.892;2023-03-04T12:45:39;29.73;;;22.23;;
10031;SDS011;5056;44.272;19.892;2023-03-04T12:48:11;38.57;;;27.57;;
10031;SDS011;5056;44.272;19.892;2023-03-04T12:50:50;39.20;;;27.63;;
10031;SDS011;5056;44.272;19.892;2023-03-04T12:53:25;41.30;;;28.27;;
10031;SDS011;5056;44.272;19.892;2023-03-04T12:55:56;37.33;;;26.07;;
10031;SDS011;5056;44.272;19.892;2023-03-04T12:58:24;37.03;;;26.23;;
10031;SDS011;5056;44.272;19.892;2023-03-04T13:00:54;36.87;;;25.60;;
10031;SDS011;5056;44.272;19.892;2023-03-04T13:03:30;44.13;;;29.53;;
10031;SDS011;5056;44.272;19.892;2023-03-04T13:06:07;36.50;;;26.63;;
10031;SDS011;5056;44.272;19.892;2023-03-04T13:08:54;44.33;;;29.57;;
10031;SDS011;5056;44.272;19.892;2023-03-04T13:14:22;46.50;;;34.10;;
10031;SDS011;5056;44.272;19.892;2023-03-04T13:16:51;54.57;;;38.10;;
10031;SDS011;5056;44.272;19.892;2023-03-04T13:22:31;44.90;;;30.00;;
10031;SDS011;5056;44.272;19.892;2023-03-04T13:25:02;43.20;;;31.47;;
10031;SDS011;5056;44.272;19.892;2023-03-04T13:28:05;50.80;;;35.47;;
10031;SDS011;5056;44.272;19.892;2023-03-04T13:33:49;49.17;;;34.83;;
10031;SDS011;5056;44.272;19.892;2023-03-04T13:36:28;54.50;;;37.73;;
10031;SDS011;5056;44.272;19.892;2023-03-04T13:48:00;46.47;;;33.93;;
10031;SDS011;5056;44.272;19.892;2023-03-04T13:50:34;45.70;;;31.90;;
10031;SDS011;5056;44.272;19.892;2023-03-04T13:53:20;53.40;;;35.80;;
10031;SDS011;5056;44.272;19.892;2023-03-04T13:56:02;35.30;;;26.83;;
10031;SDS011;5056;44.272;19.892;2023-03-04T13:58:30;37.20;;;27.20;;
10031;SDS011;5056;44.272;19.892;2023-03-04T14:00:58;37.43;;;27.00;;
10031;SDS011;5056;44.272;19.892;2023-03-04T14:03:26;39.80;;;29.33;;
10031;SDS011;5056;44.272;19.892;2023-03-04T14:08:42;42.70;;;29.70;;
10031;SDS011;5056;44.272;19.892;2023-03-04T14:11:13;44.50;;;29.90;;
10031;SDS011;5056;44.272;19.892;2023-03-04T14:13:41;39.60;;;28.50;;
10031;SDS011;5056;44.272;19.892;2023-03-04T14:16:09;44.87;;;30.53;;
10031;SDS011;5056;44.272;19.892;2023-03-04T14:18:35;44.57;;;30.60;;
10031;SDS011;5056;44.272;19.892;2023-03-04T14:21:02;54.30;;;37.90;;
10031;SDS011;5056;44.272;19.892;2023-03-04T14:23:31;53.40;;;36.67;;
10031;SDS011;5056;44.272;19.892;2023-03-04T14:26:03;60.47;;;38.67;;
10031;SDS011;5056;44.272;19.892;2023-03-04T14:28:42;70.87;;;42.60;;
10031;SDS011;5056;44.272;19.892;2023-03-04T14:31:14;62.17;;;40.03;;
10031;SDS011;5056;44.272;19.892;2023-03-04T14:33:43;60.83;;;39.93;;
10031;SDS011;5056;44.272;19.892;2023-03-04T14:36:13;56.13;;;36.53;;
10031;SDS011;5056;44.272;19.892;2023-03-04T14:38:42;59.40;;;40.07;;
10031;SDS011;5056;44.272;19.892;2023-03-04T14:41:10;56.63;;;35.67;;
10031;SDS011;5056;44.272;19.892;2023-03-04T14:43:44;48.87;;;33.57;;
10031;SDS011;5056;44.272;19.892;2023-03-04T14:46:14;52.73;;;35.60;;
10031;SDS011;5056;44.272;19.892;2023-03-04T14:48:44;57.13;;;37.07;;
10031;SDS011;5056;44.272;19.892;2023-03-04T14:51:26;44.10;;;32.60;;
10031;SDS011;5056;44.272;19.892;2023-03-04T14:53:55;56.80;;;38.17;;
10031;SDS011;5056;44.272;19.892;2023-03-04T14:56:25;43.90;;;31.77;;
10031;SDS011;5056;44.272;19.892;2023-03-04T14:58:56;44.23;;;30.17;;
10031;SDS011;5056;44.272;19.892;2023-03-04T15:01:27;43.23;;;28.50;;
10031;SDS011;5056;44.272;19.892;2023-03-04T15:03:56;47.13;;;34.80;;
10031;SDS011;5056;44.272;19.892;2023-03-04T15:06:27;43.23;;;28.97;;
10031;SDS011;5056;44.272;19.892;2023-03-04T15:08:56;47.37;;;33.40;;
10031;SDS011;5056;44.272;19.892;2023-03-04T15:11:25;48.83;;;39.40;;
10031;SDS011;5056;44.272;19.892;2023-03-04T15:13:58;41.90;;;29.27;;
10031;SDS011;5056;44.272;19.892;2023-03-04T15:16:26;38.40;;;27.50;;
10031;SDS011;5056;44.272;19.892;2023-03-04T15:18:58;35.27;;;26.50;;
10031;SDS011;5056;44.272;19.892;2023-03-04T15:21:35;37.87;;;27.40;;
10031;SDS011;5056;44.272;19.892;2023-03-04T15:24:05;44.27;;;33.17;;
10031;SDS011;5056;44.272;19.892;2023-03-04T15:26:37;42.43;;;33.33;;
10031;SDS011;5056;44.272;19.892;2023-03-04T15:29:11;51.73;;;33.93;;
10031;SDS011;5056;44.272;19.892;2023-03-04T15:31:40;45.77;;;32.37;;
10031;SDS011;5056;44.272;19.892;2023-03-04T15:34:10;51.57;;;32.03;;
10031;SDS011;5056;44.272;19.892;2023-03-04T15:36:38;54.37;;;34.00;;